^^
Saratoga-Weather Station Historical Data
Daily Summary for May 29, 2020 Units:  Metric    English   Both
Daily Weekly Monthly Yearly Custom
  High: Low: Average:
Temperature: 8.5 °C 3.3 °C 5.4 °C
Dew Point: 2.4 °C -2.8 °C -0.8 °C
Humidity: 76% 47% 65%
Wind Speed: 28.8km/h 0km/h 6.8km/h
Wind Gust: 32.2km/h - -
Wind- - SW
Pressure: 1027.8 hPa 1020.3 hPa -
Precipitation: 0.0 mm    
Historical Graphs
 
 
Tabular Data for May 29, 2020
Time Temperature Dew Point Pressure Wind Wind Speed Wind Gust Humidity Rainfall Rate (Hourly) solar
00:01 7.9 °C 2.2 °C 1020.7 hPa NE 6.4 km/h 9.7 km/h 67% 0.0 mm 0 W/m2
00:06 7.8 °C 2.3 °C 1020.3 hPa NNW 3.2 km/h 8 km/h 68% 0.0 mm 0 W/m2
00:11 7.7 °C 2.2 °C 1020.7 hPa ENE 1.4 km/h 6.4 km/h 68% 0.0 mm 0 W/m2
00:16 7.7 °C 2.4 °C 1020.7 hPa NNW 3.2 km/h 16.1 km/h 69% 0.0 mm 0 W/m2
00:21 7.6 °C 2.3 °C 1020.7 hPa NW 1.4 km/h 12.9 km/h 69% 0.0 mm 0 W/m2
00:26 7.5 °C 2.4 °C 1020.7 hPa NNE 4.7 km/h 11.3 km/h 70% 0.0 mm 0 W/m2
00:31 7.4 °C 2.3 °C 1020.7 hPa WNW 4.7 km/h 6.4 km/h 70% 0.0 mm 0 W/m2
00:36 7.3 °C 2.2 °C 1020.7 hPa NNE 6.4 km/h 11.3 km/h 70% 0.0 mm 0 W/m2
00:42 7.2 °C 2.3 °C 1020.7 hPa NE 7.9 km/h 11.3 km/h 71% 0.0 mm 0 W/m2
00:47 7.2 °C 2.3 °C 1020.7 hPa NW 3.2 km/h 12.9 km/h 71% 0.0 mm 0 W/m2
00:52 7.1 °C 2.2 °C 1021.0 hPa NNE 3.2 km/h 17.7 km/h 71% 0.0 mm 0 W/m2
00:57 7 °C 2.1 °C 1021.0 hPa West 4.7 km/h 8 km/h 71% 0.0 mm 0 W/m2
01:02 6.9 °C 2 °C 1021.0 hPa NE 1.4 km/h 4.8 km/h 71% 0.0 mm 0 W/m2
01:07 6.9 °C 2.2 °C 1021.0 hPa NNW 6.4 km/h 9.7 km/h 72% 0.0 mm 0 W/m2
01:12 6.8 °C 2.1 °C 1021.0 hPa NNE 1.4 km/h 4.8 km/h 72% 0.0 mm 0 W/m2
01:17 6.7 °C 2 °C 1021.0 hPa WNW 3.2 km/h 6.4 km/h 72% 0.0 mm 0 W/m2
01:22 6.7 °C 2 °C 1021.0 hPa West 6.4 km/h 11.3 km/h 72% 0.0 mm 0 W/m2
01:27 6.6 °C 1.9 °C 1021.0 hPa NNW 13 km/h 12.9 km/h 72% 0.0 mm 0 W/m2
01:32 6.6 °C 2.1 °C 1021.0 hPa NW 3.2 km/h 4.8 km/h 73% 0.0 mm 0 W/m2
01:37 6.4 °C 1.9 °C 1021.3 hPa Calm   17.7 km/h 73% 0.0 mm 0 W/m2
01:42 6.3 °C 1.8 °C 1021.3 hPa NE 3.2 km/h 11.3 km/h 73% 0.0 mm 0 W/m2
01:47 6.3 °C 1.8 °C 1021.0 hPa NE 3.2 km/h 16.1 km/h 73% 0.0 mm 0 W/m2
01:52 6.2 °C 1.7 °C 1021.0 hPa NE 9.7 km/h 16.1 km/h 73% 0.0 mm 0 W/m2
01:57 6.2 °C 1.7 °C 1021.3 hPa SW 9.7 km/h 12.9 km/h 73% 0.0 mm 0 W/m2
03:02 6.1 °C 1.6 °C 1021.3 hPa NW 6.4 km/h 11.3 km/h 73% 0.0 mm 0 W/m2
03:07 6.1 °C 1.6 °C 1021.3 hPa NNW 9.7 km/h 9.7 km/h 73% 0.0 mm 0 W/m2
03:12 6 °C 1.5 °C 1021.0 hPa NW 6.4 km/h 6.4 km/h 73% 0.0 mm 0 W/m2
03:17 5.9 °C 1.4 °C 1021.3 hPa West 3.2 km/h 14.5 km/h 73% 0.0 mm 0 W/m2
03:22 5.9 °C 1.4 °C 1021.3 hPa WNW 4.7 km/h 14.5 km/h 73% 0.0 mm 0 W/m2
03:27 5.9 °C 1.4 °C 1021.3 hPa NW 11.1 km/h 11.3 km/h 73% 0.0 mm 0 W/m2
03:32 5.9 °C 1.4 °C 1021.0 hPa North 6.4 km/h 6.4 km/h 73% 0.0 mm 0 W/m2
03:37 5.9 °C 1.4 °C 1021.0 hPa NW 3.2 km/h 16.1 km/h 73% 0.0 mm 0 W/m2
03:42 5.9 °C 1.4 °C 1021.0 hPa West 4.7 km/h 12.9 km/h 73% 0.0 mm 0 W/m2
03:47 5.9 °C 1.4 °C 1021.0 hPa NW 3.2 km/h 14.5 km/h 73% 0.0 mm 0 W/m2
03:52 5.9 °C 1.4 °C 1021.3 hPa NNW 1.4 km/h 8 km/h 73% 0.0 mm 0 W/m2
03:57 5.9 °C 1.2 °C 1021.3 hPa NNE 11.1 km/h 16.1 km/h 72% 0.0 mm 0 W/m2
04:02 5.8 °C 1.1 °C 1021.3 hPa East 1.4 km/h 14.5 km/h 72% 0.0 mm 0 W/m2
04:07 5.7 °C 0.9 °C 1021.3 hPa NNW 4.7 km/h 12.9 km/h 71% 0.0 mm 0 W/m2
04:12 5.6 °C 0.6 °C 1021.3 hPa WNW 4.7 km/h 14.5 km/h 70% 0.0 mm 0 W/m2
04:17 5.4 °C 0.2 °C 1021.3 hPa West 16.3 km/h 19.3 km/h 69% 0.0 mm 0 W/m2
04:22 5.3 °C 0.1 °C 1021.3 hPa WNW 3.2 km/h 8 km/h 69% 0.0 mm 0 W/m2
04:27 5.2 °C 0 °C 1021.3 hPa WNW 6.4 km/h 14.5 km/h 69% 0.0 mm 0 W/m2
04:32 5.1 °C -0.3 °C 1021.3 hPa East 4.7 km/h 12.9 km/h 68% 0.0 mm 0 W/m2
04:37 4.9 °C -0.5 °C 1021.3 hPa WSW 1.4 km/h 9.7 km/h 68% 0.0 mm 0 W/m2
04:43 4.8 °C -0.6 °C 1021.7 hPa NNW 3.2 km/h 19.3 km/h 68% 0.0 mm 0 W/m2
04:48 4.7 °C -0.7 °C 1021.3 hPa SE 4.7 km/h 16.1 km/h 68% 0.0 mm 0 W/m2
04:53 4.6 °C -0.8 °C 1021.7 hPa NNW 9.7 km/h 12.9 km/h 68% 0.0 mm 0 W/m2
04:58 4.5 °C -0.9 °C 1021.7 hPa WSW 3.2 km/h 11.3 km/h 68% 0.0 mm 0 W/m2
05:03 4.4 °C -0.8 °C 1021.3 hPa North 1.4 km/h 11.3 km/h 69% 0.0 mm 0 W/m2
05:08 4.3 °C -0.9 °C 1021.3 hPa NW 1.4 km/h 11.3 km/h 69% 0.0 mm 0 W/m2
05:13 4.3 °C -0.9 °C 1021.3 hPa ENE 3.2 km/h 11.3 km/h 69% 0.0 mm 0 W/m2
05:18 4.3 °C -0.7 °C 1021.7 hPa ENE 1.4 km/h 8 km/h 70% 0.0 mm 0 W/m2
05:23 4.3 °C -0.7 °C 1021.3 hPa West 4.7 km/h 16.1 km/h 70% 0.0 mm 0 W/m2
05:28 4.3 °C -0.7 °C 1021.3 hPa NW 7.9 km/h 9.7 km/h 70% 0.0 mm 0 W/m2
05:33 4.3 °C -0.7 °C 1021.3 hPa WSW 4.7 km/h 16.1 km/h 70% 0.0 mm 0 W/m2
05:38 4.3 °C -0.7 °C 1021.3 hPa East 1.4 km/h 9.7 km/h 70% 0.0 mm 0 W/m2
05:43 4.3 °C -0.7 °C 1021.3 hPa WNW 4.7 km/h 4.8 km/h 70% 0.0 mm 0 W/m2
05:48 4.3 °C -0.7 °C 1021.3 hPa WNW 3.2 km/h 4.8 km/h 70% 0.0 mm 0 W/m2
05:53 4.3 °C -0.7 °C 1021.3 hPa North 4.7 km/h 9.7 km/h 70% 0.0 mm 0 W/m2
05:58 4.3 °C -0.7 °C 1021.3 hPa West 11.1 km/h 14.5 km/h 70% 0.0 mm 0 W/m2
06:03 4.3 °C -0.9 °C 1021.3 hPa NE 7.9 km/h 17.7 km/h 69% 0.0 mm 0 W/m2
06:08 4.2 °C -1.2 °C 1021.3 hPa NW 4.7 km/h 8 km/h 68% 0.0 mm 0 W/m2
06:13 4.2 °C -1.2 °C 1021.3 hPa North 3.2 km/h 6.4 km/h 68% 0.0 mm 0 W/m2
06:18 4.1 °C -1.3 °C 1021.3 hPa NE 3.2 km/h 9.7 km/h 68% 0.0 mm 0 W/m2
06:24 4.1 °C -1.1 °C 1021.3 hPa WSW 1.4 km/h 8 km/h 69% 0.0 mm 0 W/m2
06:29 4 °C -1.2 °C 1021.3 hPa NNW 1.4 km/h 16.1 km/h 69% 0.0 mm 0 W/m2
06:34 4 °C -1.2 °C 1021.3 hPa North 6.4 km/h 8 km/h 69% 0.0 mm 0 W/m2
06:39 4 °C -1 °C 1021.3 hPa NNW 6.4 km/h 16.1 km/h 70% 0.0 mm 0 W/m2
06:44 4 °C -1 °C 1021.3 hPa North 3.2 km/h 4.8 km/h 70% 0.0 mm 0 W/m2
06:49 4 °C -1 °C 1021.3 hPa NNW 6.4 km/h 9.7 km/h 70% 0.0 mm 0 W/m2
06:54 4.1 °C -0.7 °C 1021.3 hPa NNE 4.7 km/h 14.5 km/h 71% 0.0 mm 0 W/m2
06:59 4.1 °C -0.7 °C 1021.3 hPa East 1.4 km/h 3.2 km/h 71% 0.0 mm 0 W/m2
07:04 4.1 °C -0.7 °C 1021.7 hPa West 4.7 km/h 6.4 km/h 71% 0.0 mm 0 W/m2
07:09 4.2 °C -0.6 °C 1021.7 hPa Calm   6.4 km/h 71% 0.0 mm 0 W/m2
07:14 4.2 °C -0.4 °C 1021.7 hPa NNW 4.7 km/h 4.8 km/h 72% 0.0 mm 0 W/m2
07:19 4.2 °C -0.6 °C 1021.7 hPa WNW 3.2 km/h 9.7 km/h 71% 0.0 mm 0 W/m2
07:24 4.2 °C -0.6 °C 1021.7 hPa NNE 1.4 km/h 14.5 km/h 71% 0.0 mm 0 W/m2
07:29 4.2 °C -0.6 °C 1021.7 hPa NNW 7.9 km/h 12.9 km/h 71% 0.0 mm 5 W/m2
07:34 4.2 °C -0.6 °C 1022.0 hPa NNW 4.7 km/h 14.5 km/h 71% 0.0 mm 7 W/m2
07:39 4.3 °C -0.7 °C 1022.0 hPa NNE 6.4 km/h 12.9 km/h 70% 0.0 mm 11 W/m2
07:44 4.3 °C -0.7 °C 1022.0 hPa NNW 1.4 km/h 12.9 km/h 70% 0.0 mm 14 W/m2
07:49 4.3 °C -0.7 °C 1022.0 hPa West 6.4 km/h 6.4 km/h 70% 0.0 mm 30 W/m2
07:54 4.3 °C -0.9 °C 1022.0 hPa West 6.4 km/h 20.9 km/h 69% 0.0 mm 51 W/m2
07:59 4.2 °C -1 °C 1022.0 hPa NNW 6.4 km/h 6.4 km/h 69% 0.0 mm 35 W/m2
08:04 4 °C -1.6 °C 1022.0 hPa ENE 6.4 km/h 17.7 km/h 67% 0.0 mm 33 W/m2
08:09 3.8 °C -1.8 °C 1022.0 hPa NNE 6.4 km/h 9.7 km/h 67% 0.0 mm 37 W/m2
08:14 3.7 °C -1.9 °C 1022.4 hPa ENE 6.4 km/h 14.5 km/h 67% 0.0 mm 46 W/m2
08:19 3.7 °C -1.9 °C 1022.4 hPa East 4.7 km/h 8 km/h 67% 0.0 mm 54 W/m2
08:25 3.7 °C -2.1 °C 1022.4 hPa NW 4.7 km/h 16.1 km/h 66% 0.0 mm 104 W/m2
08:30 3.7 °C -2.1 °C 1022.4 hPa East 9.7 km/h 14.5 km/h 66% 0.0 mm 120 W/m2
08:35 3.7 °C -1.9 °C 1022.4 hPa East 1.4 km/h 12.9 km/h 67% 0.0 mm 148 W/m2
08:40 3.8 °C -1.8 °C 1022.4 hPa NW 6.4 km/h 9.7 km/h 67% 0.0 mm 158 W/m2
08:45 3.8 °C -1.8 °C 1022.4 hPa WNW 3.2 km/h 17.7 km/h 67% 0.0 mm 111 W/m2
08:50 3.8 °C -1.8 °C 1022.4 hPa NNW 6.4 km/h 6.4 km/h 67% 0.0 mm 134 W/m2
08:55 3.8 °C -1.8 °C 1022.4 hPa NNW 13 km/h 20.9 km/h 67% 0.0 mm 165 W/m2
09:00 3.9 °C -1.5 °C 1022.4 hPa SW 4.7 km/h 8 km/h 68% 0.0 mm 135 W/m2
09:05 3.9 °C -1.5 °C 1022.7 hPa North 6.4 km/h 16.1 km/h 68% 0.0 mm 160 W/m2
09:10 4 °C -1.4 °C 1022.7 hPa NNW 6.4 km/h 16.1 km/h 68% 0.0 mm 171 W/m2
09:15 3.9 °C -1.5 °C 1022.7 hPa WNW 11.1 km/h 14.5 km/h 68% 0.0 mm 163 W/m2
09:20 4 °C -1.4 °C 1022.4 hPa NNW 14.3 km/h 19.3 km/h 68% 0.0 mm 179 W/m2
09:25 4 °C -1.4 °C 1022.7 hPa NNW 3.2 km/h 8 km/h 68% 0.0 mm 151 W/m2
09:30 4.1 °C -1.3 °C 1022.7 hPa West 1.4 km/h 19.3 km/h 68% 0.0 mm 134 W/m2
09:35 4.3 °C -1.3 °C 1022.7 hPa NNE 3.2 km/h 11.3 km/h 67% 0.0 mm 223 W/m2
09:40 4.4 °C -1.2 °C 1022.7 hPa NW 3.2 km/h 14.5 km/h 67% 0.0 mm 135 W/m2
09:45 4.5 °C -1.1 °C 1022.7 hPa West 9.7 km/h 9.7 km/h 67% 0.0 mm 348 W/m2
09:50 4.7 °C -0.9 °C 1022.7 hPa NE 14.3 km/h 16.1 km/h 67% 0.0 mm 315 W/m2
09:55 4.8 °C -0.8 °C 1022.7 hPa West 16.3 km/h 20.9 km/h 67% 0.0 mm 383 W/m2
10:00 4.8 °C -0.8 °C 1022.7 hPa NW 4.7 km/h 12.9 km/h 67% 0.0 mm 385 W/m2
10:05 5 °C -0.8 °C 1022.7 hPa NNW 3.2 km/h 8 km/h 66% 0.0 mm 420 W/m2
10:10 5.2 °C -0.8 °C 1022.7 hPa WNW 4.7 km/h 16.1 km/h 65% 0.0 mm 390 W/m2
10:15 5.3 °C -1 °C 1022.7 hPa NNW 13 km/h 22.5 km/h 64% 0.0 mm 410 W/m2
10:20 5.3 °C -0.7 °C 1022.7 hPa NE 4.7 km/h 8 km/h 65% 0.0 mm 360 W/m2
10:25 5.4 °C -1.1 °C 1022.7 hPa ENE 3.2 km/h 12.9 km/h 63% 0.0 mm 466 W/m2
10:30 5.7 °C -0.8 °C 1022.7 hPa WNW 4.7 km/h 17.7 km/h 63% 0.0 mm 466 W/m2
10:35 5.8 °C -1.4 °C 1022.7 hPa WSW 13 km/h 29 km/h 60% 0.0 mm 508 W/m2
10:40 5.9 °C -1.5 °C 1022.7 hPa NNW 7.9 km/h 16.1 km/h 59% 0.0 mm 439 W/m2
10:45 5.8 °C -1.8 °C 1022.7 hPa West 4.7 km/h 25.7 km/h 58% 0.0 mm 287 W/m2
10:50 5.8 °C -1.4 °C 1022.7 hPa WNW 4.7 km/h 9.7 km/h 60% 0.0 mm 431 W/m2
10:55 6.1 °C -1.5 °C 1022.7 hPa NE 4.7 km/h 20.9 km/h 58% 0.0 mm 469 W/m2
11:00 6.4 °C -1.3 °C 1022.7 hPa NW 6.4 km/h 19.3 km/h 58% 0.0 mm 519 W/m2
11:05 6.5 °C -1.4 °C 1022.4 hPa WNW 6.4 km/h 6.4 km/h 57% 0.0 mm 517 W/m2
11:11 6.6 °C -1.1 °C 1022.4 hPa WNW 6.4 km/h 12.9 km/h 58% 0.0 mm 531 W/m2
11:16 6.9 °C -0.8 °C 1022.4 hPa NNW 4.7 km/h 12.9 km/h 58% 0.0 mm 552 W/m2
11:21 6.9 °C -1.5 °C 1022.4 hPa NNW 6.4 km/h 12.9 km/h 55% 0.0 mm 605 W/m2
11:26 7.3 °C -1.4 °C 1022.4 hPa West 13 km/h 16.1 km/h 54% 0.0 mm 548 W/m2
11:31 7.4 °C -2.1 °C 1022.4 hPa NW 7.9 km/h 19.3 km/h 51% 0.0 mm 568 W/m2
11:36 7.3 °C -2.2 °C 1022.4 hPa WNW 6.4 km/h 17.7 km/h 51% 0.0 mm 603 W/m2
11:41 7.4 °C -2.1 °C 1022.4 hPa WSW 11.1 km/h 14.5 km/h 51% 0.0 mm 605 W/m2
11:46 7.3 °C -1.9 °C 1022.4 hPa North 4.7 km/h 14.5 km/h 52% 0.0 mm 645 W/m2
11:51 7.6 °C -1.9 °C 1022.4 hPa North 6.4 km/h 16.1 km/h 51% 0.0 mm 696 W/m2
11:56 7.8 °C -2 °C 1022.4 hPa WNW 13 km/h 12.9 km/h 50% 0.0 mm 689 W/m2
12:01 8.1 °C -2.3 °C 1022.4 hPa NW 7.9 km/h 17.7 km/h 48% 0.0 mm 682 W/m2
12:06 8.5 °C -1.6 °C 1022.4 hPa WSW 17.7 km/h 24.1 km/h 49% 0.0 mm 791 W/m2
12:11 8.3 °C -2.4 °C 1022.4 hPa North 3.2 km/h 25.7 km/h 47% 0.0 mm 206 W/m2
12:16 7.9 °C -2.4 °C 1022.4 hPa West 11.1 km/h 30.6 km/h 48% 0.0 mm 661 W/m2
12:21 7.8 °C -2.3 °C 1022.4 hPa North 9.7 km/h 16.1 km/h 49% 0.0 mm 661 W/m2
12:26 8.2 °C -2.2 °C 1022.4 hPa North 6.4 km/h 30.6 km/h 48% 0.0 mm 316 W/m2
12:31 8.2 °C -1.9 °C 1022.4 hPa ESE 3.2 km/h 8 km/h 49% 0.0 mm 255 W/m2
12:36 7.8 °C -2.5 °C 1022.7 hPa NNW 14.3 km/h 14.5 km/h 48% 0.0 mm 287 W/m2
12:41 7.6 °C -2.2 °C 1022.7 hPa NNE 1.4 km/h 12.9 km/h 50% 0.0 mm 214 W/m2
12:46 7.3 °C -2.4 °C 1022.7 hPa ENE 4.7 km/h 14.5 km/h 50% 0.0 mm 225 W/m2
12:51 7.1 °C -2.4 °C 1023.0 hPa NE 7.9 km/h 11.3 km/h 51% 0.0 mm 244 W/m2
12:57 7.1 °C -2.1 °C 1022.7 hPa NE 6.4 km/h 14.5 km/h 52% 0.0 mm 343 W/m2
13:02 7.1 °C -2.1 °C 1022.7 hPa NNW 6.4 km/h 16.1 km/h 52% 0.0 mm 207 W/m2
13:07 7.1 °C -2.1 °C 1022.7 hPa SSE 3.2 km/h 8 km/h 52% 0.0 mm 279 W/m2
13:12 7.2 °C -1.5 °C 1022.7 hPa North 14.3 km/h 17.7 km/h 54% 0.0 mm 383 W/m2
13:17 7.3 °C -1.7 °C 1022.7 hPa West 20.9 km/h 27.4 km/h 53% 0.0 mm 135 W/m2
13:22 6.9 °C -1.5 °C 1023.0 hPa North 7.9 km/h 11.3 km/h 55% 0.0 mm 169 W/m2
13:27 6.6 °C -1.8 °C 1023.0 hPa ENE 13 km/h 27.4 km/h 55% 0.0 mm 148 W/m2
13:32 6.4 °C -2 °C 1023.0 hPa NW 4.7 km/h 14.5 km/h 55% 0.0 mm 202 W/m2
13:37 6.4 °C -1.7 °C 1023.0 hPa NNW 6.4 km/h 20.9 km/h 56% 0.0 mm 241 W/m2
13:42 6.4 °C -1.5 °C 1022.7 hPa NW 13 km/h 12.9 km/h 57% 0.0 mm 218 W/m2
13:47 6.6 °C -1.8 °C 1023.0 hPa NW 3.2 km/h 16.1 km/h 55% 0.0 mm 220 W/m2
13:52 6.7 °C -1.5 °C 1023.0 hPa NW 13 km/h 20.9 km/h 56% 0.0 mm 171 W/m2
13:57 6.6 °C -1.3 °C 1023.0 hPa SSE 3.2 km/h 6.4 km/h 57% 0.0 mm 190 W/m2
14:02 6.4 °C -1.5 °C 1023.0 hPa ESE 11.1 km/h 14.5 km/h 57% 0.0 mm 220 W/m2
14:07 6.4 °C -1.3 °C 1023.0 hPa ENE 1.4 km/h 14.5 km/h 58% 0.0 mm 220 W/m2
14:12 6.4 °C -1.5 °C 1023.0 hPa North 1.4 km/h 9.7 km/h 57% 0.0 mm 195 W/m2
14:17 6.4 °C -2.2 °C 1023.0 hPa South 9.7 km/h 16.1 km/h 54% 0.0 mm 167 W/m2
14:22 6.4 °C -2.2 °C 1023.0 hPa WNW 7.9 km/h 16.1 km/h 54% 0.0 mm 230 W/m2
14:27 6.4 °C -2.2 °C 1023.0 hPa NNW 7.9 km/h 16.1 km/h 54% 0.0 mm 272 W/m2
14:32 6.6 °C -2.3 °C 1023.0 hPa North 7.9 km/h 11.3 km/h 53% 0.0 mm 287 W/m2
14:38 6.7 °C -2.5 °C 1023.0 hPa NNW 16.3 km/h 22.5 km/h 52% 0.0 mm 285 W/m2
14:43 6.7 °C -2.7 °C 1023.0 hPa NNE 11.1 km/h 19.3 km/h 51% 0.0 mm 276 W/m2
14:48 6.8 °C -2.6 °C 1023.0 hPa NW 6.4 km/h 22.5 km/h 51% 0.0 mm 311 W/m2
14:53 6.9 °C -2.5 °C 1023.0 hPa SW 6.4 km/h 19.3 km/h 51% 0.0 mm 330 W/m2
14:58 7.1 °C -2.6 °C 1023.0 hPa North 3.2 km/h 22.5 km/h 50% 0.0 mm 345 W/m2
15:03 7.2 °C -2.3 °C 1023.0 hPa South 6.4 km/h 6.4 km/h 51% 0.0 mm 366 W/m2
15:08 7.3 °C -1.9 °C 1023.0 hPa East 6.4 km/h 22.5 km/h 52% 0.0 mm 260 W/m2
15:13 7.3 °C -2.2 °C 1023.0 hPa NNE 6.4 km/h 12.9 km/h 51% 0.0 mm 274 W/m2
15:18 7.2 °C -2.3 °C 1023.0 hPa NW 6.4 km/h 9.7 km/h 51% 0.0 mm 244 W/m2
15:23 7.1 °C -2.4 °C 1023.0 hPa SSE 4.7 km/h 20.9 km/h 51% 0.0 mm 589 W/m2
15:28 7.3 °C -2.2 °C 1022.7 hPa NW 13 km/h 27.4 km/h 51% 0.0 mm 617 W/m2
15:33 7.6 °C -2.4 °C 1022.7 hPa NNW 6.4 km/h 12.9 km/h 49% 0.0 mm 388 W/m2
15:38 7.7 °C -2.1 °C 1022.7 hPa NE 3.2 km/h 29 km/h 50% 0.0 mm 352 W/m2
15:43 7.8 °C -2.8 °C 1022.7 hPa NW 7.9 km/h 11.3 km/h 47% 0.0 mm 406 W/m2
15:48 7.7 °C -2.1 °C 1023.0 hPa West 13 km/h 32.2 km/h 50% 0.0 mm 185 W/m2
15:53 7.2 °C -1.7 °C 1023.0 hPa East 3.2 km/h 16.1 km/h 53% 0.0 mm 176 W/m2
15:58 6.9 °C -1.8 °C 1023.0 hPa NNE 14.3 km/h 32.2 km/h 54% 0.0 mm 144 W/m2
16:03 6.7 °C -2 °C 1023.4 hPa NNW 14.3 km/h 17.7 km/h 54% 0.0 mm 169 W/m2
16:08 6.5 °C -1.9 °C 1023.4 hPa North 9.7 km/h 24.1 km/h 55% 0.0 mm 202 W/m2
16:13 6.5 °C -2.1 °C 1023.4 hPa ENE 4.7 km/h 16.1 km/h 54% 0.0 mm 253 W/m2
16:18 6.6 °C -1.8 °C 1023.4 hPa ESE 7.9 km/h 20.9 km/h 55% 0.0 mm 207 W/m2
16:23 6.6 °C -2 °C 1023.4 hPa SE 4.7 km/h 9.7 km/h 54% 0.0 mm 251 W/m2
16:28 6.7 °C -1.7 °C 1023.4 hPa WSW 6.4 km/h 22.5 km/h 55% 0.0 mm 239 W/m2
16:33 6.6 °C -1.6 °C 1023.4 hPa SSW 9.7 km/h 11.3 km/h 56% 0.0 mm 221 W/m2
16:38 6.7 °C -1.2 °C 1023.0 hPa West 1.4 km/h 6.4 km/h 57% 0.0 mm 480 W/m2
16:43 6.9 °C -1.3 °C 1023.0 hPa WNW 4.7 km/h 14.5 km/h 56% 0.0 mm 406 W/m2
16:48 7 °C -1.7 °C 1023.4 hPa ENE 9.7 km/h 17.7 km/h 54% 0.0 mm 396 W/m2
16:53 6.9 °C -1.5 °C 1023.0 hPa North 6.4 km/h 14.5 km/h 55% 0.0 mm 424 W/m2
16:58 7.1 °C -1.3 °C 1023.4 hPa WSW 4.7 km/h 19.3 km/h 55% 0.0 mm 515 W/m2
17:03 7.3 °C -1.4 °C 1023.4 hPa WNW 17.7 km/h 17.7 km/h 54% 0.0 mm 366 W/m2
17:08 7.3 °C -1.4 °C 1023.4 hPa NW 16.3 km/h 16.1 km/h 54% 0.0 mm 234 W/m2
17:13 7.2 °C -1 °C 1023.4 hPa North 4.7 km/h 6.4 km/h 56% 0.0 mm 278 W/m2
17:18 7.3 °C -1.1 °C 1023.4 hPa WNW 6.4 km/h 8 km/h 55% 0.0 mm 137 W/m2
17:23 7.1 °C -1.6 °C 1023.4 hPa NNE 7.9 km/h 14.5 km/h 54% 0.0 mm 142 W/m2
17:28 6.7 °C -1.5 °C 1023.4 hPa NW 4.7 km/h 12.9 km/h 56% 0.0 mm 153 W/m2
17:33 6.6 °C -1.1 °C 1023.4 hPa North 14.3 km/h 20.9 km/h 58% 0.0 mm 102 W/m2
17:38 6.4 °C -1 °C 1023.4 hPa NNE 7.9 km/h 8 km/h 59% 0.0 mm 83 W/m2
17:43 6.3 °C -1.1 °C 1023.7 hPa North 28.8 km/h 29 km/h 59% 0.0 mm 88 W/m2
17:48 5.9 °C -1 °C 1023.7 hPa NW 7.9 km/h 19.3 km/h 61% 0.0 mm 111 W/m2
17:53 5.8 °C -1.1 °C 1023.7 hPa WNW 7.9 km/h 29 km/h 61% 0.0 mm 102 W/m2
17:58 5.7 °C -1.7 °C 1023.7 hPa NNE 6.4 km/h 16.1 km/h 59% 0.0 mm 111 W/m2
18:03 5.6 °C -1.6 °C 1023.7 hPa South 3.2 km/h 22.5 km/h 60% 0.0 mm 109 W/m2
18:08 5.6 °C -1.3 °C 1023.7 hPa NNW 9.7 km/h 20.9 km/h 61% 0.0 mm 105 W/m2
18:13 5.6 °C -1.3 °C 1024.0 hPa East 1.4 km/h 6.4 km/h 61% 0.0 mm 88 W/m2
18:18 5.6 °C -1.1 °C 1024.0 hPa North 4.7 km/h 20.9 km/h 62% 0.0 mm 72 W/m2
18:23 5.5 °C -1.4 °C 1024.0 hPa WSW 6.4 km/h 12.9 km/h 61% 0.0 mm 62 W/m2
18:28 5.4 °C -1.7 °C 1024.0 hPa ESE 11.1 km/h 19.3 km/h 60% 0.0 mm 67 W/m2
18:33 5.4 °C -1.5 °C 1024.0 hPa NNW 9.7 km/h 16.1 km/h 61% 0.0 mm 69 W/m2
18:38 5.4 °C -1.3 °C 1024.0 hPa NNE 6.4 km/h 11.3 km/h 62% 0.0 mm 69 W/m2
18:43 5.3 °C -1.6 °C 1024.0 hPa NE 6.4 km/h 14.5 km/h 61% 0.0 mm 83 W/m2
18:49 5.2 °C -1.3 °C 1024.0 hPa NNW 9.7 km/h 16.1 km/h 63% 0.0 mm 97 W/m2
18:54 5.3 °C -1 °C 1024.4 hPa NNW 6.4 km/h 14.5 km/h 64% 0.0 mm 74 W/m2
18:59 5.2 °C -0.8 °C 1024.4 hPa West 11.1 km/h 24.1 km/h 65% 0.0 mm 72 W/m2
19:04 5.1 °C -0.9 °C 1024.4 hPa NNE 6.4 km/h 12.9 km/h 65% 0.0 mm 53 W/m2
19:09 5 °C -1 °C 1024.7 hPa NNW 7.9 km/h 12.9 km/h 65% 0.0 mm 53 W/m2
19:14 4.9 °C -1.1 °C 1024.7 hPa NNE 14.3 km/h 14.5 km/h 65% 0.0 mm 47 W/m2
19:19 4.8 °C -1 °C 1024.7 hPa North 7.9 km/h 22.5 km/h 66% 0.0 mm 39 W/m2
19:24 4.7 °C -1.1 °C 1025.1 hPa ESE 9.7 km/h 16.1 km/h 66% 0.0 mm 30 W/m2
19:29 4.6 °C -0.8 °C 1025.1 hPa WNW 1.4 km/h 8 km/h 68% 0.0 mm 23 W/m2
19:34 4.5 °C -0.9 °C 1025.1 hPa West 13 km/h 22.5 km/h 68% 0.0 mm 18 W/m2
19:39 4.3 °C -0.9 °C 1025.1 hPa West 4.7 km/h 12.9 km/h 69% 0.0 mm 16 W/m2
19:44 4.3 °C -0.7 °C 1025.1 hPa WNW 6.4 km/h 9.7 km/h 70% 0.0 mm 14 W/m2
19:49 4.3 °C -0.7 °C 1025.1 hPa North 6.4 km/h 6.4 km/h 70% 0.0 mm 11 W/m2
19:54 4.2 °C -0.8 °C 1025.1 hPa North 14.5 km/h 14.5 km/h 70% 0.0 mm 7 W/m2
19:59 4.2 °C -0.6 °C 1025.4 hPa ENE 4.7 km/h 6.4 km/h 71% 0.0 mm 5 W/m2
20:04 4.1 °C -0.7 °C 1025.4 hPa West 3.2 km/h 16.1 km/h 71% 0.0 mm 0 W/m2
20:09 4.1 °C -0.7 °C 1025.4 hPa NW 1.4 km/h 14.5 km/h 71% 0.0 mm 0 W/m2
20:14 4 °C -0.6 °C 1025.4 hPa NNW 3.2 km/h 19.3 km/h 72% 0.0 mm 0 W/m2
20:19 4 °C -0.6 °C 1025.4 hPa ENE 1.4 km/h 4.8 km/h 72% 0.0 mm 0 W/m2
20:24 3.9 °C -0.7 °C 1025.7 hPa WSW 6.4 km/h 16.1 km/h 72% 0.0 mm 0 W/m2
20:30 3.9 °C -0.7 °C 1025.7 hPa NNW 16.3 km/h 20.9 km/h 72% 0.0 mm 0 W/m2
20:35 3.9 °C -0.7 °C 1025.7 hPa East 6.4 km/h 17.7 km/h 72% 0.0 mm 0 W/m2
20:40 3.9 °C -0.7 °C 1025.7 hPa NE 7.9 km/h 11.3 km/h 72% 0.0 mm 0 W/m2
20:45 3.9 °C -0.7 °C 1025.7 hPa West 3.2 km/h 17.7 km/h 72% 0.0 mm 0 W/m2
20:50 3.9 °C -0.7 °C 1026.1 hPa NNW 3.2 km/h 11.3 km/h 72% 0.0 mm 0 W/m2
20:55 3.9 °C -0.7 °C 1026.1 hPa NW 6.4 km/h 16.1 km/h 72% 0.0 mm 0 W/m2
21:00 3.9 °C -0.7 °C 1026.1 hPa WNW 14.3 km/h 17.7 km/h 72% 0.0 mm 0 W/m2
21:05 3.9 °C -0.7 °C 1026.1 hPa NNE 1.4 km/h 17.7 km/h 72% 0.0 mm 0 W/m2
21:10 3.9 °C -0.7 °C 1026.4 hPa North 7.9 km/h 12.9 km/h 72% 0.0 mm 0 W/m2
21:15 3.9 °C -0.5 °C 1026.4 hPa NNW 4.7 km/h 14.5 km/h 73% 0.0 mm 0 W/m2
21:20 3.9 °C -0.5 °C 1026.4 hPa NNE 11.1 km/h 14.5 km/h 73% 0.0 mm 0 W/m2
21:25 3.9 °C -0.5 °C 1026.4 hPa NNW 13 km/h 16.1 km/h 73% 0.0 mm 0 W/m2
21:30 3.9 °C -0.5 °C 1026.4 hPa North 11.1 km/h 11.3 km/h 73% 0.0 mm 0 W/m2
21:35 3.9 °C -0.5 °C 1026.4 hPa SE 3.2 km/h 9.7 km/h 73% 0.0 mm 0 W/m2
21:40 3.8 °C -0.6 °C 1026.8 hPa North 6.4 km/h 24.1 km/h 73% 0.0 mm 0 W/m2
21:45 3.8 °C -0.4 °C 1026.8 hPa NNW 3.2 km/h 22.5 km/h 74% 0.0 mm 0 W/m2
21:50 3.7 °C -0.3 °C 1026.8 hPa East 11.1 km/h 12.9 km/h 75% 0.0 mm 0 W/m2
21:55 3.7 °C -0.3 °C 1026.8 hPa NE 4.7 km/h 19.3 km/h 75% 0.0 mm 0 W/m2
22:01 3.6 °C -0.4 °C 1026.8 hPa East 7.9 km/h 9.7 km/h 75% 0.0 mm 0 W/m2
22:06 3.5 °C -0.3 °C 1026.8 hPa NNE 9.7 km/h 25.7 km/h 76% 0.0 mm 0 W/m2
22:11 3.5 °C -0.3 °C 1026.8 hPa ENE 4.7 km/h 12.9 km/h 76% 0.0 mm 0 W/m2
22:16 3.5 °C -0.3 °C 1026.8 hPa NNW 16.3 km/h 25.7 km/h 76% 0.0 mm 0 W/m2
22:21 3.5 °C -0.5 °C 1027.1 hPa NE 7.9 km/h 20.9 km/h 75% 0.0 mm 0 W/m2
22:26 3.5 °C -0.5 °C 1027.1 hPa North 22.5 km/h 22.5 km/h 75% 0.0 mm 0 W/m2
22:31 3.4 °C -0.6 °C 1027.1 hPa ENE 7.9 km/h 29 km/h 75% 0.0 mm 0 W/m2
22:36 3.4 °C -0.6 °C 1027.1 hPa East 6.4 km/h 14.5 km/h 75% 0.0 mm 0 W/m2
22:41 3.4 °C -0.6 °C 1027.1 hPa SW 4.7 km/h 22.5 km/h 75% 0.0 mm 0 W/m2
22:46 3.3 °C -0.7 °C 1027.4 hPa NNW 4.7 km/h 12.9 km/h 75% 0.0 mm 0 W/m2
22:51 3.3 °C -0.7 °C 1027.1 hPa West 6.4 km/h 11.3 km/h 75% 0.0 mm 0 W/m2
22:56 3.4 °C -0.6 °C 1027.4 hPa North 6.4 km/h 8 km/h 75% 0.0 mm 0 W/m2
23:01 3.3 °C -0.7 °C 1027.4 hPa North 9.7 km/h 9.7 km/h 75% 0.0 mm 0 W/m2
23:06 3.3 °C -0.7 °C 1027.4 hPa NE 7.9 km/h 9.7 km/h 75% 0.0 mm 0 W/m2
23:11 3.3 °C -0.7 °C 1027.4 hPa NNE 14.3 km/h 17.7 km/h 75% 0.0 mm 0 W/m2
23:16 3.3 °C -0.7 °C 1027.4 hPa NE 6.4 km/h 9.7 km/h 75% 0.0 mm 0 W/m2
23:21 3.3 °C -0.7 °C 1027.4 hPa NNW 4.7 km/h 17.7 km/h 75% 0.0 mm 0 W/m2
23:26 3.3 °C -0.7 °C 1027.4 hPa North 3.2 km/h 14.5 km/h 75% 0.0 mm 0 W/m2
23:31 3.4 °C -0.8 °C 1027.4 hPa NNE 6.4 km/h 24.1 km/h 74% 0.0 mm 0 W/m2
23:36 3.4 °C -0.8 °C 1027.8 hPa North 7.9 km/h 16.1 km/h 74% 0.0 mm 0 W/m2
23:41 3.4 °C -1 °C 1027.8 hPa ENE 7.9 km/h 24.1 km/h 73% 0.0 mm 0 W/m2
23:46 3.4 °C -1 °C 1027.8 hPa ESE 14.3 km/h 22.5 km/h 73% 0.0 mm 0 W/m2
23:51 3.4 °C -1 °C 1027.8 hPa NW 9.7 km/h 12.9 km/h 73% 0.0 mm 0 W/m2
23:56 3.4 °C -1 °C 1027.8 hPa South 3.2 km/h 8 km/h 73% 0.0 mm 0 W/m2
Juneau County Weather
Compliments of Weather Underground - 2 mb